Terminal Aerodrome Forecast
Issued by NWS

Home | Current Version | Previous Version | Text Only | Print | Product List | Glossary On
Versions: 1 2 3 4 5 6 7 8 9 10 11 12 13 14 15 16 17 18
898
FTUS46 KSEW 220520
TAFPAE
TAF
KPAE 220520Z 2206/2306 30006KT P6SM VCSH FEW010 BKN025 OVC040
     FM220800 17006KT P6SM VCSH SCT015 BKN025 OVC050
     FM221400 17008KT P6SM SCT020 BKN030 OVC050
     FM222000 25004KT P6SM SCT030 BKN060=

USA.gov is the U.S. government's official web portal to all federal, state and local government web resources and services.